sensor_id;sensor_type;location;lat;lon;timestamp;pressure;altitude;pressure_sealevel;temperature;humidity
63808;BME280;49961;43.970;22.868;2024-01-11T00:00:10;102936.19;;;-4.89;100.00
63808;BME280;49961;43.970;22.868;2024-01-11T00:01:11;102923.25;;;-4.87;100.00
63808;BME280;49961;43.970;22.868;2024-01-11T00:02:11;102925.13;;;-4.88;100.00
63808;BME280;49961;43.970;22.868;2024-01-11T00:03:12;102930.78;;;-4.89;100.00
63808;BME280;49961;43.970;22.868;2024-01-11T00:04:13;102860.63;;;-5.49;100.00
63808;BME280;49961;43.970;22.868;2024-01-11T00:05:13;102833.03;;;-5.46;100.00
63808;BME280;49961;43.970;22.868;2024-01-11T00:06:14;102935.41;;;-4.90;100.00
63808;BME280;49961;43.970;22.868;2024-01-11T00:07:14;102899.44;;;-5.00;100.00
63808;BME280;49961;43.970;22.868;2024-01-11T00:08:15;102905.69;;;-5.05;100.00
63808;BME280;49961;43.970;22.868;2024-01-11T00:09:15;102922.16;;;-4.86;100.00
63808;BME280;49961;43.970;22.868;2024-01-11T00:10:16;102759.91;;;-5.85;100.00
63808;BME280;49961;43.970;22.868;2024-01-11T00:11:17;102921.06;;;-4.85;100.00
63808;BME280;49961;43.970;22.868;2024-01-11T00:12:17;102831.66;;;-5.39;100.00
63808;BME280;49961;43.970;22.868;2024-01-11T00:13:18;102923.22;;;-4.77;100.00
63808;BME280;49961;43.970;22.868;2024-01-11T00:14:18;102892.66;;;-4.88;100.00
63808;BME280;49961;43.970;22.868;2024-01-11T00:15:19;102915.34;;;-4.74;100.00
63808;BME280;49961;43.970;22.868;2024-01-11T00:16:20;102763.13;;;-5.68;100.00
63808;BME280;49961;43.970;22.868;2024-01-11T00:17:20;102887.25;;;-4.88;100.00
63808;BME280;49961;43.970;22.868;2024-01-11T00:18:21;102835.44;;;-5.20;100.00
63808;BME280;49961;43.970;22.868;2024-01-11T00:19:21;102743.41;;;-5.78;100.00
63808;BME280;49961;43.970;22.868;2024-01-11T00:20:22;102910.72;;;-4.68;100.00
63808;BME280;49961;43.970;22.868;2024-01-11T00:21:22;102804.63;;;-5.34;100.00
63808;BME280;49961;43.970;22.868;2024-01-11T00:22:23;102805.44;;;-5.28;100.00
63808;BME280;49961;43.970;22.868;2024-01-11T00:23:23;102864.81;;;-4.88;100.00
63808;BME280;49961;43.970;22.868;2024-01-11T00:24:24;102907.97;;;-4.58;100.00
63808;BME280;49961;43.970;22.868;2024-01-11T00:25:24;102803.25;;;-5.21;100.00
63808;BME280;49961;43.970;22.868;2024-01-11T00:26:25;102913.09;;;-4.47;100.00
63808;BME280;49961;43.970;22.868;2024-01-11T00:27:25;102842.63;;;-4.90;100.00
63808;BME280;49961;43.970;22.868;2024-01-11T00:28:25;102895.81;;;-4.56;100.00
63808;BME280;49961;43.970;22.868;2024-01-11T00:29:26;102701.59;;;-5.81;100.00
63808;BME280;49961;43.970;22.868;2024-01-11T00:30:27;102912.28;;;-4.42;100.00
63808;BME280;49961;43.970;22.868;2024-01-11T00:31:27;102912.28;;;-4.42;100.00
63808;BME280;49961;43.970;22.868;2024-01-11T00:32:28;102916.88;;;-4.43;100.00
63808;BME280;49961;43.970;22.868;2024-01-11T00:33:28;102912.56;;;-4.44;100.00
63808;BME280;49961;43.970;22.868;2024-01-11T00:34:29;102908.53;;;-4.56;100.00
63808;BME280;49961;43.970;22.868;2024-01-11T00:35:29;102910.41;;;-4.57;100.00
63808;BME280;49961;43.970;22.868;2024-01-11T00:36:30;102913.38;;;-4.53;100.00
63808;BME280;49961;43.970;22.868;2024-01-11T00:37:30;102909.91;;;-4.64;100.00
63808;BME280;49961;43.970;22.868;2024-01-11T00:38:31;102916.69;;;-4.71;100.00
63808;BME280;49961;43.970;22.868;2024-01-11T00:39:31;102914.81;;;-4.71;100.00
63808;BME280;49961;43.970;22.868;2024-01-11T00:40:32;102913.97;;;-4.66;100.00
63808;BME280;49961;43.970;22.868;2024-01-11T00:41:32;102912.06;;;-4.66;100.00
63808;BME280;49961;43.970;22.868;2024-01-11T00:42:33;102907.47;;;-4.65;100.00
63808;BME280;49961;43.970;22.868;2024-01-11T00:43:35;102827.28;;;-5.10;100.00
63808;BME280;49961;43.970;22.868;2024-01-11T00:44:35;102908.56;;;-4.61;100.00
63808;BME280;49961;43.970;22.868;2024-01-11T00:45:36;102907.72;;;-4.62;100.00
63808;BME280;49961;43.970;22.868;2024-01-11T00:46:36;102912.34;;;-4.62;100.00
63808;BME280;49961;43.970;22.868;2024-01-11T00:47:38;102778.50;;;-5.58;100.00
63808;BME280;49961;43.970;22.868;2024-01-11T00:48:39;102882.63;;;-4.77;100.00
63808;BME280;49961;43.970;22.868;2024-01-11T00:49:39;102909.91;;;-4.64;100.00
63808;BME280;49961;43.970;22.868;2024-01-11T00:50:39;102911.28;;;-4.66;100.00
63808;BME280;49961;43.970;22.868;2024-01-11T00:51:40;102874.81;;;-4.84;100.00
63808;BME280;49961;43.970;22.868;2024-01-11T00:52:41;102899.38;;;-4.65;100.00
63808;BME280;49961;43.970;22.868;2024-01-11T00:53:41;102905.03;;;-4.67;100.00
63808;BME280;49961;43.970;22.868;2024-01-11T00:54:42;102901.81;;;-4.69;100.00
63808;BME280;49961;43.970;22.868;2024-01-11T00:55:42;102899.38;;;-4.70;100.00
63808;BME280;49961;43.970;22.868;2024-01-11T00:56:43;102709.44;;;-5.94;100.00
63808;BME280;49961;43.970;22.868;2024-01-11T00:57:43;102895.59;;;-4.69;100.00
63808;BME280;49961;43.970;22.868;2024-01-11T00:58:45;102899.94;;;-4.73;100.00
63808;BME280;49961;43.970;22.868;2024-01-11T00:59:45;102903.44;;;-4.73;100.00
63808;BME280;49961;43.970;22.868;2024-01-11T01:00:46;102897.50;;;-4.75;100.00
63808;BME280;49961;43.970;22.868;2024-01-11T01:01:50;102895.91;;;-4.76;100.00
63808;BME280;49961;43.970;22.868;2024-01-11T01:02:50;102896.69;;;-4.75;100.00
63808;BME280;49961;43.970;22.868;2024-01-11T01:03:51;102876.16;;;-4.86;100.00
63808;BME280;49961;43.970;22.868;2024-01-11T01:04:51;102872.09;;;-4.79;100.00
63808;BME280;49961;43.970;22.868;2024-01-11T01:05:52;102860.22;;;-4.93;100.00
63808;BME280;49961;43.970;22.868;2024-01-11T01:06:52;102873.19;;;-4.80;100.00
63808;BME280;49961;43.970;22.868;2024-01-11T01:07:53;102891.00;;;-4.74;100.00
63808;BME280;49961;43.970;22.868;2024-01-11T01:08:55;102879.94;;;-4.77;100.00
63808;BME280;49961;43.970;22.868;2024-01-11T01:09:55;102880.19;;;-4.74;100.00
63808;BME280;49961;43.970;22.868;2024-01-11T01:10:56;102888.31;;;-4.74;100.00
63808;BME280;49961;43.970;22.868;2024-01-11T01:11:56;102783.59;;;-5.37;100.00
63808;BME280;49961;43.970;22.868;2024-01-11T01:12:57;102889.13;;;-4.78;100.00
63808;BME280;49961;43.970;22.868;2024-01-11T01:13:57;102880.19;;;-4.79;100.00
63808;BME280;49961;43.970;22.868;2024-01-11T01:14:58;102875.63;;;-4.83;100.00
63808;BME280;49961;43.970;22.868;2024-01-11T01:15:59;102776.84;;;-5.49;100.00
63808;BME280;49961;43.970;22.868;2024-01-11T01:16:59;102873.22;;;-4.95;100.00
63808;BME280;49961;43.970;22.868;2024-01-11T01:18:00;102875.94;;;-5.00;100.00
63808;BME280;49961;43.970;22.868;2024-01-11T01:19:00;102867.28;;;-5.07;100.00
63808;BME280;49961;43.970;22.868;2024-01-11T01:20:01;102728.34;;;-6.04;100.00
63808;BME280;49961;43.970;22.868;2024-01-11T01:21:01;102871.38;;;-5.14;100.00
63808;BME280;49961;43.970;22.868;2024-01-11T01:22:02;102869.75;;;-5.20;100.00
63808;BME280;49961;43.970;22.868;2024-01-11T01:23:02;102721.59;;;-6.22;100.00
63808;BME280;49961;43.970;22.868;2024-01-11T01:24:03;102874.09;;;-5.29;100.00
63808;BME280;49961;43.970;22.868;2024-01-11T01:25:22;102879.50;;;-5.34;100.00
63808;BME280;49961;43.970;22.868;2024-01-11T01:26:23;102866.00;;;-5.39;100.00
63808;BME280;49961;43.970;22.868;2024-01-11T01:27:23;102854.66;;;-5.46;100.00
63808;BME280;49961;43.970;22.868;2024-01-11T01:28:24;102868.97;;;-5.41;100.00
63808;BME280;49961;43.970;22.868;2024-01-11T01:29:25;102867.38;;;-5.42;100.00
63808;BME280;49961;43.970;22.868;2024-01-11T01:30:25;102864.94;;;-5.43;100.00
63808;BME280;49961;43.970;22.868;2024-01-11T01:31:26;102881.66;;;-5.41;100.00
63808;BME280;49961;43.970;22.868;2024-01-11T01:32:26;102863.31;;;-5.39;100.00
63808;BME280;49961;43.970;22.868;2024-01-11T01:33:27;102864.91;;;-5.38;100.00
63808;BME280;49961;43.970;22.868;2024-01-11T01:34:28;102864.34;;;-5.35;100.00
63808;BME280;49961;43.970;22.868;2024-01-11T01:35:28;102860.31;;;-5.33;100.00
63808;BME280;49961;43.970;22.868;2024-01-11T01:36:28;102851.94;;;-5.31;100.00
63808;BME280;49961;43.970;22.868;2024-01-11T01:37:29;102851.13;;;-5.27;100.00
63808;BME280;49961;43.970;22.868;2024-01-11T01:38:29;102859.50;;;-5.23;100.00
63808;BME280;49961;43.970;22.868;2024-01-11T01:39:30;102852.19;;;-5.23;100.00
63808;BME280;49961;43.970;22.868;2024-01-11T01:40:31;102796.31;;;-5.57;100.00
63808;BME280;49961;43.970;22.868;2024-01-11T01:41:34;102843.81;;;-5.26;100.00
63808;BME280;49961;43.970;22.868;2024-01-11T01:42:34;102841.38;;;-5.28;100.00
63808;BME280;49961;43.970;22.868;2024-01-11T01:43:35;102838.41;;;-5.31;100.00
63808;BME280;49961;43.970;22.868;2024-01-11T01:44:35;102740.75;;;-5.98;100.00
63808;BME280;49961;43.970;22.868;2024-01-11T01:45:36;102837.34;;;-5.35;100.00
63808;BME280;49961;43.970;22.868;2024-01-11T01:46:37;102850.59;;;-5.44;100.00
63808;BME280;49961;43.970;22.868;2024-01-11T01:47:39;102821.19;;;-5.60;100.00
63808;BME280;49961;43.970;22.868;2024-01-11T01:48:40;102819.00;;;-5.73;100.00
63808;BME280;49961;43.970;22.868;2024-01-11T01:49:40;102845.75;;;-5.47;100.00
63808;BME280;49961;43.970;22.868;2024-01-11T01:50:43;102844.66;;;-5.46;100.00
63808;BME280;49961;43.970;22.868;2024-01-11T01:51:51;102837.91;;;-5.43;100.00
63808;BME280;49961;43.970;22.868;2024-01-11T01:52:53;102840.06;;;-5.50;100.00
63808;BME280;49961;43.970;22.868;2024-01-11T01:53:56;102721.06;;;-6.39;100.00
63808;BME280;49961;43.970;22.868;2024-01-11T01:54:57;102843.59;;;-5.60;100.00
63808;BME280;49961;43.970;22.868;2024-01-11T01:55:59;102836.03;;;-5.58;100.00
63808;BME280;49961;43.970;22.868;2024-01-11T01:57:00;102656.03;;;-6.72;100.00
63808;BME280;49961;43.970;22.868;2024-01-11T01:58:03;102839.78;;;-5.59;100.00
63808;BME280;49961;43.970;22.868;2024-01-11T01:59:04;102833.03;;;-5.56;100.00
63808;BME280;49961;43.970;22.868;2024-01-11T02:00:05;102842.78;;;-5.55;100.00
63808;BME280;49961;43.970;22.868;2024-01-11T02:01:06;102836.81;;;-5.52;100.00
63808;BME280;49961;43.970;22.868;2024-01-11T02:02:07;102830.88;;;-5.44;100.00
63808;BME280;49961;43.970;22.868;2024-01-11T02:03:08;102804.16;;;-5.61;100.00
63808;BME280;49961;43.970;22.868;2024-01-11T02:04:09;102831.13;;;-5.36;100.00
63808;BME280;49961;43.970;22.868;2024-01-11T02:05:11;102834.63;;;-5.30;100.00
63808;BME280;49961;43.970;22.868;2024-01-11T02:06:13;102829.22;;;-5.30;100.00
63808;BME280;49961;43.970;22.868;2024-01-11T02:07:15;102710.53;;;-6.00;100.00
63808;BME280;49961;43.970;22.868;2024-01-11T02:08:16;102829.53;;;-5.37;100.00
63808;BME280;49961;43.970;22.868;2024-01-11T02:09:19;102822.78;;;-5.34;100.00
63808;BME280;49961;43.970;22.868;2024-01-11T02:10:20;102806.28;;;-5.43;100.00
63808;BME280;49961;43.970;22.868;2024-01-11T02:11:23;102828.16;;;-5.29;100.00
63808;BME280;49961;43.970;22.868;2024-01-11T02:12:25;102824.63;;;-5.25;100.00
63808;BME280;49961;43.970;22.868;2024-01-11T02:13:26;102820.31;;;-5.26;100.00
63808;BME280;49961;43.970;22.868;2024-01-11T02:14:26;102817.06;;;-5.33;100.00
63808;BME280;49961;43.970;22.868;2024-01-11T02:15:27;102817.38;;;-5.34;100.00
63808;BME280;49961;43.970;22.868;2024-01-11T02:16:27;102822.78;;;-5.34;100.00
63808;BME280;49961;43.970;22.868;2024-01-11T02:17:28;102810.59;;;-5.32;100.00
63808;BME280;49961;43.970;22.868;2024-01-11T02:18:29;102790.38;;;-5.49;100.00
63808;BME280;49961;43.970;22.868;2024-01-11T02:19:29;102814.66;;;-5.39;100.00
63808;BME280;49961;43.970;22.868;2024-01-11T02:20:31;102759.91;;;-5.80;100.00
63808;BME280;49961;43.970;22.868;2024-01-11T02:21:32;102698.13;;;-6.11;100.00
63808;BME280;49961;43.970;22.868;2024-01-11T02:22:39;102748.78;;;-5.68;100.00
63808;BME280;49961;43.970;22.868;2024-01-11T02:24:46;102814.56;;;-5.09;100.00
63808;BME280;49961;43.970;22.868;2024-01-11T02:25:47;102815.91;;;-5.02;100.00
63808;BME280;49961;43.970;22.868;2024-01-11T02:27:04;102803.16;;;-4.91;100.00
63808;BME280;49961;43.970;22.868;2024-01-11T02:28:05;102603.13;;;-6.23;100.00
63808;BME280;49961;43.970;22.868;2024-01-11T02:29:05;102770.22;;;-4.98;100.00
63808;BME280;49961;43.970;22.868;2024-01-11T02:30:06;102781.78;;;-4.88;100.00
63808;BME280;49961;43.970;22.868;2024-01-11T02:31:07;102638.06;;;-5.73;100.00
63808;BME280;49961;43.970;22.868;2024-01-11T02:32:07;102805.75;;;-4.66;100.00
63808;BME280;49961;43.970;22.868;2024-01-11T02:33:08;102806.25;;;-4.59;100.00
63808;BME280;49961;43.970;22.868;2024-01-11T02:34:10;102781.16;;;-4.70;100.00
63808;BME280;49961;43.970;22.868;2024-01-11T02:35:10;102805.41;;;-4.50;100.00
63808;BME280;49961;43.970;22.868;2024-01-11T02:36:12;102805.94;;;-4.48;100.00
63808;BME280;49961;43.970;22.868;2024-01-11T02:37:13;102806.41;;;-4.41;100.00
63808;BME280;49961;43.970;22.868;2024-01-11T02:38:14;102718.28;;;-5.00;100.00
63808;BME280;49961;43.970;22.868;2024-01-11T02:39:16;102804.03;;;-4.42;100.00
63808;BME280;49961;43.970;22.868;2024-01-11T02:40:18;102803.69;;;-4.36;100.00
63808;BME280;49961;43.970;22.868;2024-01-11T02:41:20;102790.00;;;-4.54;100.00
63808;BME280;49961;43.970;22.868;2024-01-11T02:42:20;102802.53;;;-4.25;100.00
63808;BME280;49961;43.970;22.868;2024-01-11T02:43:21;102802.78;;;-4.16;100.00
63808;BME280;49961;43.970;22.868;2024-01-11T02:44:22;102801.38;;;-4.09;100.00
63808;BME280;49961;43.970;22.868;2024-01-11T02:45:22;102697.28;;;-4.65;100.00
63808;BME280;49961;43.970;22.868;2024-01-11T02:46:23;102783.44;;;-4.05;100.00
63808;BME280;49961;43.970;22.868;2024-01-11T02:47:23;102793.63;;;-3.92;100.00
63808;BME280;49961;43.970;22.868;2024-01-11T02:48:30;102790.16;;;-3.97;100.00
63808;BME280;49961;43.970;22.868;2024-01-11T02:49:30;102787.16;;;-3.96;100.00
63808;BME280;49961;43.970;22.868;2024-01-11T02:50:32;102784.22;;;-3.99;100.00
63808;BME280;49961;43.970;22.868;2024-01-11T02:51:32;102793.91;;;-3.93;100.00
63808;BME280;49961;43.970;22.868;2024-01-11T02:52:34;102786.38;;;-3.96;100.00
63808;BME280;49961;43.970;22.868;2024-01-11T02:53:34;102737.81;;;-4.21;100.00
63808;BME280;49961;43.970;22.868;2024-01-11T02:54:35;102790.34;;;-3.84;100.00
63808;BME280;49961;43.970;22.868;2024-01-11T02:55:35;102785.91;;;-3.75;100.00
63808;BME280;49961;43.970;22.868;2024-01-11T02:56:36;102787.78;;;-3.70;100.00
63808;BME280;49961;43.970;22.868;2024-01-11T02:57:36;102785.56;;;-3.68;100.00
63808;BME280;49961;43.970;22.868;2024-01-11T02:58:37;102781.81;;;-3.72;100.00
63808;BME280;49961;43.970;22.868;2024-01-11T02:59:37;102779.41;;;-3.79;100.00
63808;BME280;49961;43.970;22.868;2024-01-11T03:00:38;102686.50;;;-4.36;100.00
63808;BME280;49961;43.970;22.868;2024-01-11T03:01:38;102766.69;;;-3.78;100.00
63808;BME280;49961;43.970;22.868;2024-01-11T03:02:39;102769.03;;;-3.67;100.00
63808;BME280;49961;43.970;22.868;2024-01-11T03:03:39;102779.28;;;-3.64;100.00
63808;BME280;49961;43.970;22.868;2024-01-11T03:04:40;102772.25;;;-3.65;100.00
63808;BME280;49961;43.970;22.868;2024-01-11T03:05:40;102746.63;;;-3.77;100.00
63808;BME280;49961;43.970;22.868;2024-01-11T03:06:41;102679.25;;;-4.12;100.00
63808;BME280;49961;43.970;22.868;2024-01-11T03:07:41;102772.44;;;-3.56;100.00
63808;BME280;49961;43.970;22.868;2024-01-11T03:08:42;102769.16;;;-3.53;100.00
63808;BME280;49961;43.970;22.868;2024-01-11T03:09:42;102770.56;;;-3.56;100.00
63808;BME280;49961;43.970;22.868;2024-01-11T03:10:43;102770.84;;;-3.57;100.00
63808;BME280;49961;43.970;22.868;2024-01-11T03:11:43;102689.06;;;-4.16;100.00
63808;BME280;49961;43.970;22.868;2024-01-11T03:12:44;102766.47;;;-3.53;100.00
63808;BME280;49961;43.970;22.868;2024-01-11T03:13:44;102764.03;;;-3.55;100.00
63808;BME280;49961;43.970;22.868;2024-01-11T03:14:45;102761.31;;;-3.55;100.00
63808;BME280;49961;43.970;22.868;2024-01-11T03:15:45;102761.56;;;-3.51;100.00
63808;BME280;49961;43.970;22.868;2024-01-11T03:16:46;102764.25;;;-3.51;100.00
63808;BME280;49961;43.970;22.868;2024-01-11T03:17:46;102766.97;;;-3.51;100.00
63808;BME280;49961;43.970;22.868;2024-01-11T03:18:47;102767.78;;;-3.51;100.00
63808;BME280;49961;43.970;22.868;2024-01-11T03:19:47;102720.19;;;-3.85;100.00
63808;BME280;49961;43.970;22.868;2024-01-11T03:20:48;102770.28;;;-3.54;100.00
63808;BME280;49961;43.970;22.868;2024-01-11T03:21:48;102759.72;;;-3.56;100.00
63808;BME280;49961;43.970;22.868;2024-01-11T03:22:49;102762.41;;;-3.56;100.00
63808;BME280;49961;43.970;22.868;2024-01-11T03:23:49;102753.28;;;-3.65;100.00
63808;BME280;49961;43.970;22.868;2024-01-11T03:24:50;102760.31;;;-3.64;100.00
63808;BME280;49961;43.970;22.868;2024-01-11T03:25:50;102679.00;;;-4.16;100.00
63808;BME280;49961;43.970;22.868;2024-01-11T03:26:51;102749.53;;;-3.69;100.00
63808;BME280;49961;43.970;22.868;2024-01-11T03:27:51;102626.56;;;-4.53;100.00
63808;BME280;49961;43.970;22.868;2024-01-11T03:28:52;102756.13;;;-3.80;100.00
63808;BME280;49961;43.970;22.868;2024-01-11T03:29:52;102582.75;;;-4.89;100.00
63808;BME280;49961;43.970;22.868;2024-01-11T03:30:53;102677.25;;;-4.30;100.00
63808;BME280;49961;43.970;22.868;2024-01-11T03:31:53;102731.19;;;-4.05;100.00
63808;BME280;49961;43.970;22.868;2024-01-11T03:32:54;102736.53;;;-3.95;100.00
63808;BME280;49961;43.970;22.868;2024-01-11T03:33:55;102718.28;;;-4.18;100.00
63808;BME280;49961;43.970;22.868;2024-01-11T03:34:55;102620.31;;;-4.82;100.00
63808;BME280;49961;43.970;22.868;2024-01-11T03:35:56;102644.38;;;-4.81;100.00
63808;BME280;49961;43.970;22.868;2024-01-11T03:36:56;102715.09;;;-4.25;100.00
63808;BME280;49961;43.970;22.868;2024-01-11T03:37:57;102723.50;;;-4.27;100.00
63808;BME280;49961;43.970;22.868;2024-01-11T03:38:57;102749.16;;;-4.19;100.00
63808;BME280;49961;43.970;22.868;2024-01-11T03:39:58;102741.03;;;-4.19;100.00
63808;BME280;49961;43.970;22.868;2024-01-11T03:40:59;102738.41;;;-4.29;100.00
63808;BME280;49961;43.970;22.868;2024-01-11T03:41:59;102709.44;;;-4.62;100.00
63808;BME280;49961;43.970;22.868;2024-01-11T03:43:00;102736.84;;;-4.35;100.00
63808;BME280;49961;43.970;22.868;2024-01-11T03:44:00;102731.47;;;-4.40;100.00
63808;BME280;49961;43.970;22.868;2024-01-11T03:45:01;102712.91;;;-4.57;100.00
63808;BME280;49961;43.970;22.868;2024-01-11T03:46:01;102716.38;;;-4.51;100.00
63808;BME280;49961;43.970;22.868;2024-01-11T03:47:02;102732.00;;;-4.43;100.00
63808;BME280;49961;43.970;22.868;2024-01-11T03:48:03;102728.78;;;-4.45;100.00
63808;BME280;49961;43.970;22.868;2024-01-11T03:49:04;102722.09;;;-4.58;100.00
63808;BME280;49961;43.970;22.868;2024-01-11T03:50:05;102723.75;;;-4.62;100.00
63808;BME280;49961;43.970;22.868;2024-01-11T03:51:05;102733.78;;;-4.62;100.00
63808;BME280;49961;43.970;22.868;2024-01-11T03:52:06;102729.78;;;-4.70;100.00
63808;BME280;49961;43.970;22.868;2024-01-11T03:53:07;102736.31;;;-4.76;100.00
63808;BME280;49961;43.970;22.868;2024-01-11T03:54:08;102707.72;;;-4.97;100.00
63808;BME280;49961;43.970;22.868;2024-01-11T03:55:08;102731.72;;;-4.85;100.00
63808;BME280;49961;43.970;22.868;2024-01-11T03:56:09;102734.75;;;-4.97;100.00
63808;BME280;49961;43.970;22.868;2024-01-11T03:57:10;102722.94;;;-5.11;100.00
63808;BME280;49961;43.970;22.868;2024-01-11T03:58:10;102607.34;;;-5.87;100.00
63808;BME280;49961;43.970;22.868;2024-01-11T03:59:11;102720.03;;;-5.19;100.00
63808;BME280;49961;43.970;22.868;2024-01-11T04:00:12;102570.47;;;-6.22;100.00
63808;BME280;49961;43.970;22.868;2024-01-11T04:01:12;102649.72;;;-5.78;100.00
63808;BME280;49961;43.970;22.868;2024-01-11T04:02:13;102717.94;;;-5.42;100.00
63808;BME280;49961;43.970;22.868;2024-01-11T04:03:14;102715.28;;;-5.62;100.00
63808;BME280;49961;43.970;22.868;2024-01-11T04:04:15;102715.28;;;-5.62;100.00
63808;BME280;49961;43.970;22.868;2024-01-11T04:05:15;102721.75;;;-5.53;100.00
63808;BME280;49961;43.970;22.868;2024-01-11T04:06:21;102666.75;;;-5.87;100.00
63808;BME280;49961;43.970;22.868;2024-01-11T04:07:21;102724.19;;;-5.52;100.00
63808;BME280;49961;43.970;22.868;2024-01-11T04:08:22;102720.91;;;-5.49;100.00
63808;BME280;49961;43.970;22.868;2024-01-11T04:09:22;102714.97;;;-5.51;100.00
63808;BME280;49961;43.970;22.868;2024-01-11T04:10:23;102713.66;;;-5.53;100.00
63808;BME280;49961;43.970;22.868;2024-01-11T04:11:27;102702.84;;;-5.58;100.00
63808;BME280;49961;43.970;22.868;2024-01-11T04:12:28;102726.31;;;-5.54;100.00
63808;BME280;49961;43.970;22.868;2024-01-11T04:13:28;102709.06;;;-5.58;100.00
63808;BME280;49961;43.970;22.868;2024-01-11T04:14:29;102714.72;;;-5.49;100.00
63808;BME280;49961;43.970;22.868;2024-01-11T04:15:29;102713.63;;;-5.48;100.00
63808;BME280;49961;43.970;22.868;2024-01-11T04:16:30;102710.94;;;-5.48;100.00
63808;BME280;49961;43.970;22.868;2024-01-11T04:17:30;102709.84;;;-5.52;100.00
63808;BME280;49961;43.970;22.868;2024-01-11T04:18:31;102714.16;;;-5.46;100.00
63808;BME280;49961;43.970;22.868;2024-01-11T04:19:31;102719.00;;;-5.43;100.00
63808;BME280;49961;43.970;22.868;2024-01-11T04:20:32;102691.78;;;-5.57;100.00
63808;BME280;49961;43.970;22.868;2024-01-11T04:21:32;102709.28;;;-5.39;100.00
63808;BME280;49961;43.970;22.868;2024-01-11T04:22:33;102713.03;;;-5.35;100.00
63808;BME280;49961;43.970;22.868;2024-01-11T04:23:33;102714.66;;;-5.34;100.00
63808;BME280;49961;43.970;22.868;2024-01-11T04:24:34;102709.53;;;-5.31;100.00
63808;BME280;49961;43.970;22.868;2024-01-11T04:25:35;102706.00;;;-5.36;100.00
63808;BME280;49961;43.970;22.868;2024-01-11T04:26:35;102710.56;;;-5.22;100.00
63808;BME280;49961;43.970;22.868;2024-01-11T04:27:36;102716.22;;;-5.18;100.00
63808;BME280;49961;43.970;22.868;2024-01-11T04:28:37;102711.06;;;-5.15;100.00
63808;BME280;49961;43.970;22.868;2024-01-11T04:29:37;102693.25;;;-5.21;100.00
63808;BME280;49961;43.970;22.868;2024-01-11T04:30:38;102717.81;;;-5.12;100.00
63808;BME280;49961;43.970;22.868;2024-01-11T04:31:38;102707.53;;;-5.15;100.00
63808;BME280;49961;43.970;22.868;2024-01-11T04:32:38;102710.22;;;-5.10;100.00
63808;BME280;49961;43.970;22.868;2024-01-11T04:33:46;102706.97;;;-5.07;100.00
63808;BME280;49961;43.970;22.868;2024-01-11T04:34:46;102703.19;;;-5.06;100.00
63808;BME280;49961;43.970;22.868;2024-01-11T04:35:47;102704.78;;;-5.05;100.00
63808;BME280;49961;43.970;22.868;2024-01-11T04:36:47;102713.72;;;-5.05;100.00
63808;BME280;49961;43.970;22.868;2024-01-11T04:37:48;102702.88;;;-5.00;100.00
63808;BME280;49961;43.970;22.868;2024-01-11T04:38:48;102706.66;;;-4.96;100.00
63808;BME280;49961;43.970;22.868;2024-01-11T04:39:49;102682.91;;;-5.09;100.00
63808;BME280;49961;43.970;22.868;2024-01-11T04:40:49;102638.41;;;-5.26;100.00
63808;BME280;49961;43.970;22.868;2024-01-11T04:41:50;102670.50;;;-5.10;100.00
63808;BME280;49961;43.970;22.868;2024-01-11T04:42:50;102679.31;;;-4.94;100.00
63808;BME280;49961;43.970;22.868;2024-01-11T04:43:51;102702.50;;;-4.78;100.00
63808;BME280;49961;43.970;22.868;2024-01-11T04:44:51;102703.28;;;-4.78;100.00
63808;BME280;49961;43.970;22.868;2024-01-11T04:45:52;102578.00;;;-5.50;100.00
63808;BME280;49961;43.970;22.868;2024-01-11T04:46:52;102699.78;;;-4.73;100.00
63808;BME280;49961;43.970;22.868;2024-01-11T04:47:53;102696.25;;;-4.74;100.00
63808;BME280;49961;43.970;22.868;2024-01-11T04:48:53;102616.75;;;-5.21;100.00
63808;BME280;49961;43.970;22.868;2024-01-11T04:49:54;102675.16;;;-4.77;100.00
63808;BME280;49961;43.970;22.868;2024-01-11T04:50:54;102688.63;;;-4.67;100.00
63808;BME280;49961;43.970;22.868;2024-01-11T04:51:55;102680.56;;;-4.77;100.00
63808;BME280;49961;43.970;22.868;2024-01-11T04:52:55;102688.88;;;-4.68;100.00
63808;BME280;49961;43.970;22.868;2024-01-11T04:53:56;102693.50;;;-4.69;100.00
63808;BME280;49961;43.970;22.868;2024-01-11T04:54:57;102623.81;;;-5.30;100.00
63808;BME280;49961;43.970;22.868;2024-01-11T04:55:57;102686.72;;;-4.66;100.00
63808;BME280;49961;43.970;22.868;2024-01-11T04:56:58;102713.81;;;-4.71;100.00
63808;BME280;49961;43.970;22.868;2024-01-11T04:57:58;102690.28;;;-4.71;100.00
63808;BME280;49961;43.970;22.868;2024-01-11T04:58:59;102562.34;;;-5.48;100.00
63808;BME280;49961;43.970;22.868;2024-01-11T04:59:59;102673.00;;;-4.75;100.00
63808;BME280;49961;43.970;22.868;2024-01-11T05:01:00;102682.97;;;-4.70;100.00
63808;BME280;49961;43.970;22.868;2024-01-11T05:02:00;102658.47;;;-4.89;100.00
63808;BME280;49961;43.970;22.868;2024-01-11T05:03:01;102673.31;;;-4.81;100.00
63808;BME280;49961;43.970;22.868;2024-01-11T05:04:01;102683.81;;;-4.75;100.00
63808;BME280;49961;43.970;22.868;2024-01-11T05:05:02;102495.06;;;-5.93;100.00
63808;BME280;49961;43.970;22.868;2024-01-11T05:06:03;102686.34;;;-4.88;100.00
63808;BME280;49961;43.970;22.868;2024-01-11T05:07:03;102628.34;;;-5.11;100.00
63808;BME280;49961;43.970;22.868;2024-01-11T05:08:04;102673.78;;;-4.74;100.00
63808;BME280;49961;43.970;22.868;2024-01-11T05:09:04;102672.16;;;-4.75;100.00
63808;BME280;49961;43.970;22.868;2024-01-11T05:10:06;102621.84;;;-5.10;100.00
63808;BME280;49961;43.970;22.868;2024-01-11T05:11:06;102667.34;;;-4.78;100.00